createdAt,value
2023-05-11T00:00:12.004Z,8.34
2023-05-11T00:02:39.560Z,8.30
2023-05-11T00:05:07.444Z,8.25
2023-05-11T00:07:43.659Z,8.25
2023-05-11T00:10:10.737Z,8.23
2023-05-11T00:12:37.766Z,8.21
2023-05-11T00:15:05.919Z,8.21
2023-05-11T00:17:33.522Z,8.19
2023-05-11T00:20:00.539Z,8.19
2023-05-11T00:22:27.604Z,8.18
2023-05-11T00:24:55.041Z,8.14
2023-05-11T00:27:22.020Z,8.10
2023-05-11T00:29:49.539Z,8.07
2023-05-11T00:32:17.061Z,8.02
2023-05-11T00:34:43.996Z,7.98
2023-05-11T00:37:10.916Z,7.93
2023-05-11T00:39:39.790Z,7.91
2023-05-11T00:42:06.758Z,7.92
2023-05-11T00:44:34.010Z,7.91
2023-05-11T00:47:01.264Z,7.90
2023-05-11T00:49:31.654Z,7.88
2023-05-11T00:52:03.460Z,7.86
2023-05-11T00:54:31.434Z,7.86
2023-05-11T00:56:58.334Z,7.89
2023-05-11T00:59:25.325Z,7.87
2023-05-11T01:01:52.197Z,7.85
2023-05-11T01:04:19.115Z,7.85
2023-05-11T01:07:15.407Z,7.85
2023-05-11T01:10:03.784Z,7.82
2023-05-11T01:12:46.173Z,7.77
2023-05-11T01:15:28.797Z,7.72
2023-05-11T01:18:06.513Z,7.66
2023-05-11T01:20:34.485Z,7.66
2023-05-11T01:23:08.063Z,7.65
2023-05-11T01:25:39.801Z,7.61
2023-05-11T01:28:15.293Z,7.56
2023-05-11T01:30:48.843Z,7.55
2023-05-11T01:33:31.144Z,7.50
2023-05-11T01:36:02.475Z,7.47
2023-05-11T01:38:35.532Z,7.44
2023-05-11T01:41:06.063Z,7.39
2023-05-11T01:43:33.573Z,7.38
2023-05-11T01:46:01.147Z,7.37
2023-05-11T01:48:31.490Z,7.36
2023-05-11T01:51:02.447Z,7.36
2023-05-11T01:53:31.878Z,7.34
2023-05-11T01:55:59.385Z,7.30
2023-05-11T01:58:26.399Z,7.30
2023-05-11T02:00:54.983Z,7.29
2023-05-11T02:03:22.841Z,7.28
2023-05-11T02:05:50.183Z,7.26
2023-05-11T02:08:17.295Z,7.26
2023-05-11T02:10:44.311Z,7.25
2023-05-11T02:13:11.218Z,7.24
2023-05-11T02:15:41.814Z,7.25
2023-05-11T02:18:13.118Z,7.25
2023-05-11T02:20:44.206Z,7.29
2023-05-11T02:23:12.617Z,7.33
2023-05-11T02:25:45.843Z,7.38
2023-05-11T02:28:12.735Z,7.42
2023-05-11T02:30:52.521Z,7.44
2023-05-11T02:33:21.955Z,7.47
2023-05-11T02:35:48.848Z,7.51
2023-05-11T02:38:15.645Z,7.57
2023-05-11T02:40:46.253Z,7.61
2023-05-11T02:43:15.832Z,7.65
2023-05-11T02:45:52.947Z,7.70
2023-05-11T02:48:25.509Z,7.74
2023-05-11T02:50:54.857Z,7.77
2023-05-11T02:53:23.717Z,7.80
2023-05-11T02:55:50.990Z,7.84
2023-05-11T02:58:23.583Z,7.87
2023-05-11T03:00:56.555Z,7.90
2023-05-11T03:03:29.277Z,7.95
2023-05-11T03:05:56.200Z,7.99
2023-05-11T03:08:24.168Z,8.01
2023-05-11T03:10:51.302Z,7.99
2023-05-11T03:13:19.573Z,8.01
2023-05-11T03:15:53.875Z,8.02
2023-05-11T03:18:21.475Z,8.03
2023-05-11T03:20:48.399Z,8.03
2023-05-11T03:23:17.084Z,8.03
2023-05-11T03:25:49.100Z,8.05
2023-05-11T03:28:16.564Z,8.05
2023-05-11T03:30:50.396Z,8.03
2023-05-11T03:33:22.692Z,8.05
2023-05-11T03:35:50.776Z,8.04
2023-05-11T03:38:22.034Z,8.04
2023-05-11T03:40:49.521Z,8.07
2023-05-11T03:43:17.598Z,8.09
2023-05-11T03:45:45.770Z,8.09
2023-05-11T03:48:20.013Z,8.11
2023-05-11T03:50:47.050Z,8.15
2023-05-11T03:53:20.891Z,8.19
2023-05-11T03:55:49.470Z,8.24
2023-05-11T03:58:16.485Z,8.26
2023-05-11T04:00:43.361Z,8.30
2023-05-11T04:03:12.048Z,8.42
2023-05-11T04:05:39.016Z,8.54
2023-05-11T04:08:09.274Z,8.64
2023-05-11T04:10:38.482Z,8.74
2023-05-11T04:13:05.553Z,8.88
2023-05-11T04:15:37.545Z,9.02
2023-05-11T04:18:05.864Z,9.15
2023-05-11T04:20:33.252Z,9.28
2023-05-11T04:23:05.588Z,9.36
2023-05-11T04:25:33.053Z,9.45
2023-05-11T04:28:00.013Z,9.55
2023-05-11T04:30:26.950Z,9.68
2023-05-11T04:32:54.064Z,9.81
2023-05-11T04:35:22.925Z,9.94
2023-05-11T04:37:50.496Z,10.06
2023-05-11T04:40:17.873Z,10.17
2023-05-11T04:42:45.436Z,10.24
2023-05-11T04:45:16.167Z,10.30
2023-05-11T04:47:44.148Z,10.33
2023-05-11T04:50:11.436Z,10.33
2023-05-11T04:52:39.088Z,10.40
2023-05-11T04:55:07.422Z,10.43
2023-05-11T04:57:34.942Z,10.47
2023-05-11T05:00:03.412Z,10.54
2023-05-11T05:02:31.423Z,10.61
2023-05-11T05:04:58.293Z,10.65
2023-05-11T05:07:25.202Z,10.68
2023-05-11T05:09:52.088Z,10.76
2023-05-11T05:12:20.059Z,10.81
2023-05-11T05:14:48.064Z,10.88
2023-05-11T05:17:17.027Z,10.99
2023-05-11T05:19:44.025Z,11.09
2023-05-11T05:22:10.922Z,11.15
2023-05-11T05:24:37.943Z,11.21
2023-05-11T05:27:05.006Z,11.27
2023-05-11T05:29:31.980Z,11.35
2023-05-11T05:31:59.905Z,11.42
2023-05-11T05:34:27.347Z,11.47
2023-05-11T05:36:55.076Z,11.47
2023-05-11T05:39:21.955Z,11.51
2023-05-11T05:41:48.955Z,11.53
2023-05-11T05:44:16.050Z,11.59
2023-05-11T05:46:43.150Z,11.63
2023-05-11T05:49:10.364Z,11.71
2023-05-11T05:51:38.084Z,11.79
2023-05-11T05:54:05.302Z,11.86
2023-05-11T05:56:34.396Z,11.97
2023-05-11T05:59:01.432Z,12.04
2023-05-11T06:01:29.003Z,12.12
2023-05-11T06:03:56.474Z,12.24
2023-05-11T06:06:24.744Z,12.29
2023-05-11T06:08:51.521Z,12.35
2023-05-11T06:11:18.266Z,12.42
2023-05-11T06:13:45.458Z,12.48
2023-05-11T06:16:12.759Z,12.59
2023-05-11T06:18:40.246Z,12.76
2023-05-11T06:21:08.221Z,12.90
2023-05-11T06:23:37.005Z,13.06
2023-05-11T06:26:03.986Z,13.19
2023-05-11T06:28:31.899Z,13.30
2023-05-11T06:31:03.635Z,13.40
2023-05-11T06:33:32.368Z,13.48
2023-05-11T06:36:05.035Z,13.59
2023-05-11T06:38:32.919Z,13.70
2023-05-11T06:41:00.158Z,13.79
2023-05-11T06:43:27.046Z,13.91
2023-05-11T06:45:54.998Z,14.01
2023-05-11T06:48:25.442Z,14.12
2023-05-11T06:50:52.270Z,14.23
2023-05-11T06:53:19.164Z,14.35
2023-05-11T06:55:46.162Z,14.46
2023-05-11T06:58:13.620Z,14.56
2023-05-11T07:00:40.742Z,14.70
2023-05-11T07:03:07.787Z,14.79
2023-05-11T07:05:35.373Z,14.92
2023-05-11T07:08:03.316Z,15.11
2023-05-11T07:10:33.207Z,15.33
2023-05-11T07:13:00.673Z,15.54
2023-05-11T07:15:27.861Z,15.65
2023-05-11T07:17:54.758Z,15.74
2023-05-11T07:20:21.850Z,15.93
2023-05-11T07:22:49.310Z,16.14
2023-05-11T07:25:16.119Z,16.39
2023-05-11T07:27:42.982Z,16.58
2023-05-11T07:30:10.297Z,16.75
2023-05-11T07:32:38.244Z,16.97
2023-05-11T07:35:05.465Z,17.11
2023-05-11T07:37:32.364Z,17.15
2023-05-11T07:39:59.182Z,17.18
2023-05-11T07:42:26.433Z,17.10
2023-05-11T07:44:53.350Z,16.97
2023-05-11T07:47:20.424Z,16.80
2023-05-11T07:49:48.053Z,16.65
2023-05-11T07:52:15.001Z,16.56
2023-05-11T07:54:44.270Z,16.53
2023-05-11T07:57:13.234Z,16.58
2023-05-11T07:59:45.420Z,16.69
2023-05-11T08:02:13.413Z,16.78
2023-05-11T08:04:40.821Z,16.82
2023-05-11T08:07:08.385Z,16.89
2023-05-11T08:09:35.272Z,16.93
2023-05-11T08:12:03.164Z,16.98
2023-05-11T08:14:30.698Z,17.03
2023-05-11T08:16:57.526Z,17.13
2023-05-11T08:19:24.412Z,17.28
2023-05-11T08:21:51.384Z,17.39
2023-05-11T08:24:19.408Z,17.62
2023-05-11T08:26:46.687Z,17.88
2023-05-11T08:29:13.644Z,18.13
2023-05-11T08:31:40.582Z,18.26
2023-05-11T08:34:18.603Z,18.32
2023-05-11T08:36:47.177Z,18.57
2023-05-11T08:39:14.742Z,18.73
2023-05-11T08:41:42.916Z,18.87
2023-05-11T08:44:09.863Z,19.26
2023-05-11T08:46:36.782Z,19.44
2023-05-11T08:49:03.895Z,19.42
2023-05-11T08:51:32.220Z,19.13
2023-05-11T08:53:59.531Z,18.78
2023-05-11T08:56:27.178Z,18.60
2023-05-11T08:58:56.065Z,18.92
2023-05-11T09:01:23.373Z,19.60
2023-05-11T09:03:50.909Z,20.39
2023-05-11T09:06:17.770Z,21.07
2023-05-11T09:08:45.283Z,21.69
2023-05-11T09:11:13.805Z,22.42
2023-05-11T09:13:40.769Z,22.73
2023-05-11T09:16:19.580Z,22.74
2023-05-11T09:18:51.318Z,22.40
2023-05-11T09:21:21.637Z,21.97
2023-05-11T09:23:49.143Z,21.73
2023-05-11T09:26:16.716Z,21.42
2023-05-11T09:29:02.518Z,21.16
2023-05-11T09:31:46.570Z,20.95
2023-05-11T09:34:22.921Z,20.64
2023-05-11T09:36:54.231Z,20.36
2023-05-11T09:39:39.878Z,20.18
2023-05-11T09:42:18.109Z,19.83
2023-05-11T09:44:46.375Z,19.59
2023-05-11T09:47:19.477Z,19.33
2023-05-11T09:49:47.037Z,19.20
2023-05-11T09:52:16.501Z,19.30
2023-05-11T09:54:44.925Z,19.57
2023-05-11T09:57:38.218Z,19.96
2023-05-11T10:00:08.603Z,20.06
2023-05-11T10:02:39.787Z,20.04
2023-05-11T10:05:12.971Z,19.95
2023-05-11T10:07:40.065Z,19.80
2023-05-11T10:10:08.119Z,19.71
2023-05-11T10:12:37.725Z,19.61
2023-05-11T10:15:08.743Z,19.55
2023-05-11T10:17:36.334Z,19.61
2023-05-11T10:20:04.610Z,19.65
2023-05-11T10:22:32.222Z,19.67
2023-05-11T10:24:59.357Z,19.70
2023-05-11T10:27:26.776Z,19.69
2023-05-11T10:29:53.848Z,19.69
2023-05-11T10:32:21.927Z,19.64
2023-05-11T10:34:51.980Z,19.60
2023-05-11T10:37:20.491Z,19.55
2023-05-11T10:39:50.276Z,19.43
2023-05-11T10:42:47.044Z,19.32
2023-05-11T10:45:48.127Z,19.19
2023-05-11T10:48:42.053Z,19.16
2023-05-11T10:51:46.612Z,19.28
2023-05-11T10:54:28.998Z,19.99
2023-05-11T10:57:33.785Z,20.54
2023-05-11T11:00:31.410Z,21.31
2023-05-11T11:02:58.514Z,21.75
2023-05-11T11:05:35.375Z,21.94
2023-05-11T11:08:06.645Z,21.94
2023-05-11T11:10:34.583Z,21.81
2023-05-11T11:13:06.107Z,21.67
2023-05-11T11:15:55.146Z,21.62
2023-05-11T11:18:28.218Z,21.46
2023-05-11T11:20:56.084Z,21.24
2023-05-11T11:23:41.957Z,21.10
2023-05-11T11:26:10.139Z,21.10
2023-05-11T11:29:00.158Z,21.10
2023-05-11T11:31:33.660Z,21.21
2023-05-11T11:34:28.419Z,21.58
2023-05-11T11:36:55.340Z,22.60
2023-05-11T11:39:24.763Z,23.44
2023-05-11T11:42:04.148Z,23.56
2023-05-11T11:44:31.072Z,23.57
2023-05-11T11:47:21.543Z,23.35
2023-05-11T11:49:49.316Z,23.16
2023-05-11T11:52:28.364Z,22.77
2023-05-11T11:55:00.750Z,22.53
2023-05-11T11:57:33.838Z,22.51
2023-05-11T12:00:06.181Z,22.97
2023-05-11T12:02:45.292Z,23.65
2023-05-11T12:05:13.240Z,23.33
2023-05-11T12:07:41.613Z,23.04
2023-05-11T12:10:10.753Z,22.83
2023-05-11T12:12:38.117Z,22.58
2023-05-11T12:15:06.775Z,22.40
2023-05-11T12:17:37.820Z,22.51
2023-05-11T12:20:14.511Z,22.86
2023-05-11T12:22:41.636Z,22.80
2023-05-11T12:25:10.771Z,22.56
2023-05-11T12:27:57.579Z,22.33
2023-05-11T12:30:25.361Z,22.28
2023-05-11T12:35:26.967Z,22.20
2023-05-11T12:37:53.994Z,22.13
2023-05-11T12:40:20.938Z,22.05
2023-05-11T12:42:55.310Z,22.06
2023-05-11T12:45:24.043Z,22.12
2023-05-11T12:47:55.040Z,22.22
2023-05-11T12:50:22.074Z,22.22
2023-05-11T12:52:49.691Z,22.00
2023-05-11T12:55:27.308Z,21.89
2023-05-11T12:57:54.183Z,21.66
2023-05-11T13:00:21.952Z,21.36
2023-05-11T13:02:52.787Z,21.09
2023-05-11T13:05:24.002Z,20.77
2023-05-11T13:08:04.097Z,20.42
2023-05-11T13:10:31.073Z,20.25
2023-05-11T13:12:59.742Z,20.09
2023-05-11T13:15:27.950Z,19.92
2023-05-11T13:17:56.444Z,19.77
2023-05-11T13:20:30.941Z,19.67
2023-05-11T13:23:05.029Z,19.68
2023-05-11T13:25:32.386Z,19.70
2023-05-11T13:28:00.869Z,19.95
2023-05-11T13:30:27.786Z,20.55
2023-05-11T13:32:54.972Z,21.17
2023-05-11T13:35:21.850Z,21.84
2023-05-11T13:37:48.699Z,22.29
2023-05-11T13:40:15.545Z,22.48
2023-05-11T13:42:42.804Z,22.49
2023-05-11T13:45:11.508Z,22.30
2023-05-11T13:47:45.530Z,21.96
2023-05-11T13:50:13.158Z,21.92
2023-05-11T13:52:41.121Z,21.85
2023-05-11T13:55:08.147Z,21.72
2023-05-11T13:57:35.582Z,21.53
2023-05-11T14:00:02.895Z,21.27
2023-05-11T14:02:38.769Z,21.04
2023-05-11T14:05:06.395Z,20.93
2023-05-11T14:07:43.234Z,20.80
2023-05-11T14:10:13.883Z,20.69
2023-05-11T14:12:41.238Z,20.62
2023-05-11T14:15:08.592Z,20.61
2023-05-11T14:17:36.269Z,20.58
2023-05-11T14:20:03.790Z,20.44
2023-05-11T14:22:31.398Z,20.30
2023-05-11T14:24:58.271Z,20.21
2023-05-11T14:27:25.193Z,20.15
2023-05-11T14:29:52.388Z,20.11
2023-05-11T14:32:19.700Z,20.20
2023-05-11T14:34:47.208Z,20.38
2023-05-11T14:37:14.021Z,20.52
2023-05-11T14:39:40.966Z,20.72
2023-05-11T14:42:08.208Z,20.89
2023-05-11T14:44:35.149Z,20.95
2023-05-11T14:47:07.107Z,21.02
2023-05-11T14:49:34.253Z,21.11
2023-05-11T14:52:01.416Z,21.15
2023-05-11T14:54:28.602Z,21.19
2023-05-11T14:56:56.693Z,21.15
2023-05-11T14:59:25.269Z,21.08
2023-05-11T15:01:57.338Z,21.06
2023-05-11T15:04:25.098Z,21.00
2023-05-11T15:06:52.069Z,21.01
2023-05-11T15:09:25.671Z,21.03
2023-05-11T15:11:52.470Z,20.95
2023-05-11T15:14:19.440Z,21.00
2023-05-11T15:16:46.580Z,21.07
2023-05-11T15:19:13.694Z,21.09
2023-05-11T15:21:40.618Z,21.03
2023-05-11T15:24:10.700Z,20.96
2023-05-11T15:26:37.982Z,20.86
2023-05-11T15:29:04.840Z,20.74
2023-05-11T15:31:31.975Z,20.56
2023-05-11T15:33:58.839Z,20.27
2023-05-11T15:36:29.421Z,20.03
2023-05-11T15:39:02.936Z,19.81
2023-05-11T15:41:29.949Z,19.58
2023-05-11T15:43:56.918Z,19.43
2023-05-11T15:46:23.947Z,19.35
2023-05-11T15:48:51.249Z,19.22
2023-05-11T15:51:18.691Z,19.03
2023-05-11T15:53:45.619Z,18.79
2023-05-11T15:56:12.465Z,18.63
2023-05-11T15:58:39.423Z,18.48
2023-05-11T16:01:06.391Z,18.30
2023-05-11T16:03:34.151Z,18.15
2023-05-11T16:06:01.281Z,18.06
2023-05-11T16:08:28.346Z,17.95
2023-05-11T16:10:55.195Z,17.85
2023-05-11T16:13:22.160Z,17.74
2023-05-11T16:15:49.036Z,17.61
2023-05-11T16:18:16.015Z,17.45
2023-05-11T16:20:43.428Z,17.32
2023-05-11T16:23:10.329Z,17.21
2023-05-11T16:25:37.251Z,17.09
2023-05-11T16:28:04.654Z,17.00
2023-05-11T16:30:31.886Z,16.90
2023-05-11T16:32:58.931Z,16.81
2023-05-11T16:35:26.270Z,16.71
2023-05-11T16:37:54.484Z,16.64
2023-05-11T16:40:21.977Z,16.57
2023-05-11T16:42:49.189Z,16.50
2023-05-11T16:45:16.093Z,16.42
2023-05-11T16:47:44.738Z,16.35
2023-05-11T16:50:15.340Z,16.28
2023-05-11T16:52:48.081Z,16.19
2023-05-11T16:55:15.453Z,16.12
2023-05-11T16:57:43.298Z,16.08
2023-05-11T17:00:10.967Z,16.03
2023-05-11T17:02:38.025Z,15.97
2023-05-11T17:05:06.576Z,15.89
2023-05-11T17:07:33.763Z,15.84
2023-05-11T17:10:00.723Z,15.79
2023-05-11T17:12:28.224Z,15.75
2023-05-11T17:14:55.245Z,15.72
2023-05-11T17:17:22.515Z,15.67
2023-05-11T17:19:49.381Z,15.62
2023-05-11T17:22:16.254Z,15.55
2023-05-11T17:24:43.292Z,15.48
2023-05-11T17:27:10.142Z,15.43
2023-05-11T17:29:43.869Z,15.40
2023-05-11T17:32:16.869Z,15.35
2023-05-11T17:34:43.976Z,15.32
2023-05-11T17:37:23.753Z,15.28
2023-05-11T17:39:57.837Z,15.26
2023-05-11T17:42:25.155Z,15.23
2023-05-11T17:44:52.133Z,15.24
2023-05-11T17:47:19.175Z,15.23
2023-05-11T17:49:46.004Z,15.21
2023-05-11T17:52:13.143Z,15.15
2023-05-11T17:54:39.985Z,15.10
2023-05-11T17:57:07.021Z,15.07
2023-05-11T17:59:34.834Z,15.05
2023-05-11T18:02:01.729Z,14.98
2023-05-11T18:04:29.388Z,14.95
2023-05-11T18:06:56.692Z,14.93
2023-05-11T18:09:23.736Z,14.91
2023-05-11T18:11:50.710Z,14.89
2023-05-11T18:14:17.568Z,14.86
2023-05-11T18:16:44.434Z,14.83
2023-05-11T18:19:11.328Z,14.82
2023-05-11T18:21:39.730Z,14.79
2023-05-11T18:24:08.860Z,14.76
2023-05-11T18:26:36.149Z,14.72
2023-05-11T18:29:03.212Z,14.69
2023-05-11T18:31:31.082Z,14.65
2023-05-11T18:33:58.092Z,14.61
2023-05-11T18:36:25.767Z,14.57
2023-05-11T18:38:53.277Z,14.54
2023-05-11T18:41:21.005Z,14.54
2023-05-11T18:43:48.401Z,14.52
2023-05-11T18:46:15.845Z,14.49
2023-05-11T18:48:44.253Z,14.46
2023-05-11T18:51:11.530Z,14.43
2023-05-11T18:53:38.515Z,14.39
2023-05-11T18:56:07.018Z,14.34
2023-05-11T18:58:34.169Z,14.28
2023-05-11T19:01:01.000Z,14.22
2023-05-11T19:03:30.476Z,14.14
2023-05-11T19:05:58.823Z,14.07
2023-05-11T19:08:25.775Z,14.02
2023-05-11T19:10:52.695Z,13.97
2023-05-11T19:13:20.042Z,13.92
2023-05-11T19:15:46.786Z,13.89
2023-05-11T19:18:14.200Z,13.86
2023-05-11T19:20:41.107Z,13.81
2023-05-11T19:23:08.122Z,13.77
2023-05-11T19:25:40.413Z,13.74
2023-05-11T19:28:07.209Z,13.71
2023-05-11T19:30:34.134Z,13.68
2023-05-11T19:33:01.670Z,13.64
2023-05-11T19:35:33.771Z,13.59
2023-05-11T19:38:00.799Z,13.55
2023-05-11T19:40:45.520Z,13.50
2023-05-11T19:43:13.583Z,13.45
2023-05-11T19:45:47.859Z,13.42
2023-05-11T19:48:15.961Z,13.36
2023-05-11T19:50:43.657Z,13.31
2023-05-11T19:53:10.646Z,13.26
2023-05-11T19:55:39.073Z,13.21
2023-05-11T19:58:06.326Z,13.16
2023-05-11T20:00:33.246Z,13.11
2023-05-11T20:03:00.529Z,13.07
2023-05-11T20:05:27.465Z,13.04
2023-05-11T20:07:59.898Z,12.99
2023-05-11T20:10:27.012Z,12.93
2023-05-11T20:12:59.065Z,12.90
2023-05-11T20:15:25.966Z,12.87
2023-05-11T20:17:58.170Z,12.83
2023-05-11T20:20:25.249Z,12.79
2023-05-11T20:22:52.189Z,12.75
2023-05-11T20:25:19.204Z,12.71
2023-05-11T20:27:46.292Z,12.67
2023-05-11T20:30:13.644Z,12.62
2023-05-11T20:34:06.648Z,12.58
2023-05-11T20:35:27.849Z,12.55
2023-05-11T20:37:55.050Z,12.52
2023-05-11T20:40:22.014Z,12.49
2023-05-11T20:42:49.024Z,12.46
2023-05-11T20:45:16.009Z,12.42
2023-05-11T20:47:42.915Z,12.38
2023-05-11T20:50:10.517Z,12.35
2023-05-11T20:52:37.399Z,12.31
2023-05-11T20:55:05.180Z,12.28
2023-05-11T20:57:32.297Z,12.26
2023-05-11T21:02:29.559Z,12.21
2023-05-11T21:05:01.710Z,12.17
2023-05-11T21:07:29.220Z,12.13
2023-05-11T21:10:01.028Z,12.10
2023-05-11T21:12:28.275Z,12.05
2023-05-11T21:14:57.009Z,12.02
2023-05-11T21:17:24.338Z,11.99
2023-05-11T21:19:56.291Z,11.96
2023-05-11T21:22:23.096Z,11.94
2023-05-11T21:24:55.020Z,11.92
2023-05-11T21:27:21.857Z,11.89
2023-05-11T21:29:50.237Z,11.87
2023-05-11T21:32:17.054Z,11.84
2023-05-11T21:34:44.000Z,11.83
2023-05-11T21:37:14.011Z,11.80
2023-05-11T21:39:41.049Z,11.78
2023-05-11T21:42:07.821Z,11.77
2023-05-11T21:44:35.501Z,11.74
2023-05-11T21:47:02.396Z,11.71
2023-05-11T21:49:29.349Z,11.69
2023-05-11T21:52:01.116Z,11.66
2023-05-11T21:54:27.927Z,11.64
2023-05-11T21:56:54.885Z,11.62
2023-05-11T21:59:25.882Z,11.60
2023-05-11T22:01:54.146Z,11.58
2023-05-11T22:04:21.145Z,11.56
2023-05-11T22:06:48.080Z,11.54
2023-05-11T22:09:15.319Z,11.51
2023-05-11T22:11:42.461Z,11.48
2023-05-11T22:14:09.763Z,11.45
2023-05-11T22:16:41.807Z,11.40
2023-05-11T22:19:08.796Z,11.39
2023-05-11T22:21:35.878Z,11.36
2023-05-11T22:24:03.627Z,11.32
2023-05-11T22:26:30.574Z,11.29
2023-05-11T22:28:57.409Z,11.27
2023-05-11T22:31:26.197Z,11.25
2023-05-11T22:33:53.030Z,11.21
2023-05-11T22:36:19.874Z,11.18
2023-05-11T22:38:46.659Z,11.14
2023-05-11T22:41:13.528Z,11.10
2023-05-11T22:43:40.331Z,11.06
2023-05-11T22:46:07.551Z,11.04
2023-05-11T22:48:34.616Z,11.01
2023-05-11T22:51:03.234Z,10.98
2023-05-11T22:53:30.248Z,10.97
2023-05-11T22:55:57.274Z,10.94
2023-05-11T22:58:24.613Z,10.91
2023-05-11T23:00:55.210Z,10.87
2023-05-11T23:03:22.180Z,10.84
2023-05-11T23:05:49.058Z,10.82
2023-05-11T23:08:15.926Z,10.81
2023-05-11T23:10:42.787Z,10.80
2023-05-11T23:13:10.284Z,10.79
2023-05-11T23:15:37.125Z,10.77
2023-05-11T23:18:04.180Z,10.75
2023-05-11T23:20:31.155Z,10.74
2023-05-11T23:23:03.135Z,10.71
2023-05-11T23:25:30.427Z,10.70
2023-05-11T23:27:57.264Z,10.68
2023-05-11T23:30:24.158Z,10.68
2023-05-11T23:32:51.000Z,10.67
2023-05-11T23:35:17.863Z,10.64
2023-05-11T23:37:44.760Z,10.62
2023-05-11T23:40:11.694Z,10.62
2023-05-11T23:42:38.642Z,10.61
2023-05-11T23:45:07.473Z,10.61
2023-05-11T23:47:34.523Z,10.60
2023-05-11T23:50:01.568Z,10.58
2023-05-11T23:52:29.159Z,10.55
2023-05-11T23:54:56.142Z,10.52
2023-05-11T23:57:28.055Z,10.50
2023-05-11T23:59:55.492Z,10.48
